sensor_id;sensor_type;location;lat;lon;timestamp;pressure;altitude;pressure_sealevel;temperature;humidity
17383;BME280;8809;51.892;8.384;2023-05-23T00:01:52;100510.31;;;15.61;100.00
17383;BME280;8809;51.892;8.384;2023-05-23T00:04:23;100515.59;;;15.61;100.00
17383;BME280;8809;51.892;8.384;2023-05-23T00:06:51;100511.19;;;15.60;100.00
17383;BME280;8809;51.892;8.384;2023-05-23T00:09:20;100511.19;;;15.60;100.00
17383;BME280;8809;51.892;8.384;2023-05-23T00:11:47;100511.16;;;15.58;100.00
17383;BME280;8809;51.892;8.384;2023-05-23T00:14:14;100508.50;;;15.58;100.00
17383;BME280;8809;51.892;8.384;2023-05-23T00:16:44;100512.00;;;15.56;100.00
17383;BME280;8809;51.892;8.384;2023-05-23T00:19:14;100512.00;;;15.56;100.00
17383;BME280;8809;51.892;8.384;2023-05-23T00:21:41;100505.84;;;15.55;100.00
17383;BME280;8809;51.892;8.384;2023-05-23T00:24:10;100505.81;;;15.54;100.00
17383;BME280;8809;51.892;8.384;2023-05-23T00:26:38;100502.25;;;15.53;100.00
17383;BME280;8809;51.892;8.384;2023-05-23T00:29:05;100501.38;;;15.53;100.00
17383;BME280;8809;51.892;8.384;2023-05-23T00:31:32;100510.09;;;15.52;100.00
17383;BME280;8809;51.892;8.384;2023-05-23T00:34:00;100510.97;;;15.51;100.00
17383;BME280;8809;51.892;8.384;2023-05-23T00:36:27;100506.56;;;15.50;100.00
17383;BME280;8809;51.892;8.384;2023-05-23T00:38:55;100506.53;;;15.47;100.00
17383;BME280;8809;51.892;8.384;2023-05-23T00:41:22;100510.00;;;15.46;100.00
17383;BME280;8809;51.892;8.384;2023-05-23T00:43:51;100518.69;;;15.43;100.00
17383;BME280;8809;51.892;8.384;2023-05-23T00:46:18;100512.53;;;15.41;100.00
17383;BME280;8809;51.892;8.384;2023-05-23T00:48:46;100509.00;;;15.41;100.00
17383;BME280;8809;51.892;8.384;2023-05-23T00:51:13;100501.88;;;15.35;100.00
17383;BME280;8809;51.892;8.384;2023-05-23T00:53:41;100509.66;;;15.31;100.00
17383;BME280;8809;51.892;8.384;2023-05-23T00:56:08;100515.66;;;15.23;100.00
17383;BME280;8809;51.892;8.384;2023-05-23T00:58:37;100516.34;;;15.15;100.00
17383;BME280;8809;51.892;8.384;2023-05-23T01:01:05;100520.59;;;15.10;100.00
17383;BME280;8809;51.892;8.384;2023-05-23T01:03:33;100520.56;;;15.07;100.00
17383;BME280;8809;51.892;8.384;2023-05-23T01:06:00;100516.06;;;15.03;100.00
17383;BME280;8809;51.892;8.384;2023-05-23T01:08:28;100528.28;;;15.01;100.00
17383;BME280;8809;51.892;8.384;2023-05-23T01:11:00;100520.31;;;14.96;100.00
17383;BME280;8809;51.892;8.384;2023-05-23T01:13:33;100534.25;;;14.94;100.00
17383;BME280;8809;51.892;8.384;2023-05-23T01:16:09;100528.91;;;14.91;100.00
17383;BME280;8809;51.892;8.384;2023-05-23T01:18:43;100529.91;;;14.94;100.00
17383;BME280;8809;51.892;8.384;2023-05-23T01:21:16;100534.22;;;14.92;100.00
17383;BME280;8809;51.892;8.384;2023-05-23T01:24:09;100533.28;;;14.89;100.00
17383;BME280;8809;51.892;8.384;2023-05-23T01:26:54;100528.88;;;14.88;100.00
17383;BME280;8809;51.892;8.384;2023-05-23T01:29:32;100531.47;;;14.86;100.00
17383;BME280;8809;51.892;8.384;2023-05-23T01:32:01;100534.09;;;14.86;100.00
17383;BME280;8809;51.892;8.384;2023-05-23T01:34:33;100528.00;;;14.87;100.00
17383;BME280;8809;51.892;8.384;2023-05-23T01:37:01;100532.31;;;14.85;100.00
17383;BME280;8809;51.892;8.384;2023-05-23T01:39:29;100533.06;;;14.81;100.00
17383;BME280;8809;51.892;8.384;2023-05-23T01:41:56;100531.34;;;14.80;100.00
17383;BME280;8809;51.892;8.384;2023-05-23T01:44:23;100531.25;;;14.77;100.00
17383;BME280;8809;51.892;8.384;2023-05-23T01:46:51;100533.75;;;14.72;100.00
17383;BME280;8809;51.892;8.384;2023-05-23T01:49:21;100538.16;;;14.73;100.00
17383;BME280;8809;51.892;8.384;2023-05-23T01:51:49;100540.75;;;14.72;100.00
17383;BME280;8809;51.892;8.384;2023-05-23T01:54:17;100542.53;;;14.73;100.00
17383;BME280;8809;51.892;8.384;2023-05-23T01:56:46;100552.03;;;14.68;100.00
17383;BME280;8809;51.892;8.384;2023-05-23T01:59:14;100553.72;;;14.66;100.00
17383;BME280;8809;51.892;8.384;2023-05-23T02:01:41;100555.44;;;14.64;100.00
17383;BME280;8809;51.892;8.384;2023-05-23T02:04:10;100554.53;;;14.63;100.00
17383;BME280;8809;51.892;8.384;2023-05-23T02:06:37;100558.84;;;14.61;100.00
17383;BME280;8809;51.892;8.384;2023-05-23T02:09:04;100560.63;;;14.61;100.00
17383;BME280;8809;51.892;8.384;2023-05-23T02:11:31;100559.69;;;14.59;100.00
17383;BME280;8809;51.892;8.384;2023-05-23T02:13:58;100551.91;;;14.63;100.00
17383;BME280;8809;51.892;8.384;2023-05-23T02:16:25;100558.22;;;14.71;100.00
17383;BME280;8809;51.892;8.384;2023-05-23T02:18:53;100561.75;;;14.72;100.00
17383;BME280;8809;51.892;8.384;2023-05-23T02:21:22;100561.84;;;14.75;100.00
17383;BME280;8809;51.892;8.384;2023-05-23T02:23:49;100560.97;;;14.76;100.00
17383;BME280;8809;51.892;8.384;2023-05-23T02:26:16;100563.16;;;14.58;100.00
17383;BME280;8809;51.892;8.384;2023-05-23T02:28:44;100564.38;;;14.72;100.00
17383;BME280;8809;51.892;8.384;2023-05-23T02:31:11;100560.47;;;14.55;100.00
17383;BME280;8809;51.892;8.384;2023-05-23T02:33:38;100564.91;;;14.57;100.00
17383;BME280;8809;51.892;8.384;2023-05-23T02:36:05;100565.09;;;14.65;100.00
17383;BME280;8809;51.892;8.384;2023-05-23T02:38:33;100570.81;;;14.48;100.00
17383;BME280;8809;51.892;8.384;2023-05-23T02:41:01;100568.38;;;14.56;100.00
17383;BME280;8809;51.892;8.384;2023-05-23T02:43:28;100574.63;;;14.61;100.00
17383;BME280;8809;51.892;8.384;2023-05-23T02:45:55;100575.22;;;14.50;100.00
17383;BME280;8809;51.892;8.384;2023-05-23T02:48:22;100578.69;;;14.48;100.00
17383;BME280;8809;51.892;8.384;2023-05-23T02:50:49;100577.81;;;14.48;100.00
17383;BME280;8809;51.892;8.384;2023-05-23T02:53:17;100572.75;;;14.56;100.00
17383;BME280;8809;51.892;8.384;2023-05-23T02:55:45;100574.38;;;14.51;100.00
17383;BME280;8809;51.892;8.384;2023-05-23T02:58:12;100580.50;;;14.51;100.00
17383;BME280;8809;51.892;8.384;2023-05-23T03:00:40;100576.88;;;14.46;100.00
17383;BME280;8809;51.892;8.384;2023-05-23T03:03:08;100579.44;;;14.44;100.00
17383;BME280;8809;51.892;8.384;2023-05-23T03:05:36;100575.94;;;14.44;100.00
17383;BME280;8809;51.892;8.384;2023-05-23T03:08:03;100584.69;;;14.44;100.00
17383;BME280;8809;51.892;8.384;2023-05-23T03:10:31;100570.72;;;14.45;100.00
17383;BME280;8809;51.892;8.384;2023-05-23T03:12:59;100575.88;;;14.42;100.00
17383;BME280;8809;51.892;8.384;2023-05-23T03:15:26;100575.88;;;14.42;100.00
17383;BME280;8809;51.892;8.384;2023-05-23T03:17:53;100570.59;;;14.39;100.00
17383;BME280;8809;51.892;8.384;2023-05-23T03:20:20;100565.63;;;14.52;100.00
17383;BME280;8809;51.892;8.384;2023-05-23T03:22:47;100567.88;;;14.38;100.00
17383;BME280;8809;51.892;8.384;2023-05-23T03:25:15;100570.63;;;14.42;100.00
17383;BME280;8809;51.892;8.384;2023-05-23T03:27:42;100561.59;;;14.33;100.00
17383;BME280;8809;51.892;8.384;2023-05-23T03:30:12;100566.75;;;14.28;100.00
17383;BME280;8809;51.892;8.384;2023-05-23T03:32:39;100575.38;;;14.24;100.00
17383;BME280;8809;51.892;8.384;2023-05-23T03:35:07;100575.31;;;14.21;100.00
17383;BME280;8809;51.892;8.384;2023-05-23T03:37:34;100569.03;;;14.16;100.00
17383;BME280;8809;51.892;8.384;2023-05-23T03:40:02;100573.34;;;14.13;100.00
17383;BME280;8809;51.892;8.384;2023-05-23T03:42:29;100579.44;;;14.13;100.00
17383;BME280;8809;51.892;8.384;2023-05-23T03:44:56;100573.16;;;14.06;100.00
17383;BME280;8809;51.892;8.384;2023-05-23T03:47:25;100566.88;;;14.00;100.00
17383;BME280;8809;51.892;8.384;2023-05-23T03:49:53;100571.19;;;13.98;100.00
17383;BME280;8809;51.892;8.384;2023-05-23T03:52:20;100571.06;;;13.93;100.00
17383;BME280;8809;51.892;8.384;2023-05-23T03:54:47;100573.69;;;13.93;100.00
17383;BME280;8809;51.892;8.384;2023-05-23T03:57:14;100566.53;;;13.88;100.00
17383;BME280;8809;51.892;8.384;2023-05-23T03:59:41;100577.84;;;13.87;100.00
17383;BME280;8809;51.892;8.384;2023-05-23T04:02:08;100576.19;;;13.89;100.00
17383;BME280;8809;51.892;8.384;2023-05-23T04:04:36;100575.34;;;13.90;100.00
17383;BME280;8809;51.892;8.384;2023-05-23T04:07:04;100574.41;;;13.88;100.00
17383;BME280;8809;51.892;8.384;2023-05-23T04:09:33;100579.69;;;13.89;100.00
17383;BME280;8809;51.892;8.384;2023-05-23T04:12:00;100577.16;;;13.92;100.00
17383;BME280;8809;51.892;8.384;2023-05-23T04:14:27;100584.19;;;13.95;100.00
17383;BME280;8809;51.892;8.384;2023-05-23T04:16:58;100577.31;;;13.98;100.00
17383;BME280;8809;51.892;8.384;2023-05-23T04:19:26;100585.13;;;13.97;100.00
17383;BME280;8809;51.892;8.384;2023-05-23T04:21:54;100587.84;;;14.00;100.00
17383;BME280;8809;51.892;8.384;2023-05-23T04:24:21;100589.63;;;14.01;100.00
17383;BME280;8809;51.892;8.384;2023-05-23T04:26:48;100586.22;;;14.05;100.00
17383;BME280;8809;51.892;8.384;2023-05-23T04:29:15;100591.47;;;14.05;100.00
17383;BME280;8809;51.892;8.384;2023-05-23T04:31:42;100592.38;;;14.05;100.00
17383;BME280;8809;51.892;8.384;2023-05-23T04:34:11;100592.41;;;14.07;100.00
17383;BME280;8809;51.892;8.384;2023-05-23T04:36:38;100589.03;;;14.11;100.00
17383;BME280;8809;51.892;8.384;2023-05-23T04:39:06;100589.00;;;14.09;100.00
17383;BME280;8809;51.892;8.384;2023-05-23T04:41:34;100597.75;;;14.10;100.00
17383;BME280;8809;51.892;8.384;2023-05-23T04:44:01;100603.16;;;14.16;100.00
17383;BME280;8809;51.892;8.384;2023-05-23T04:46:28;100601.38;;;14.15;100.00
17383;BME280;8809;51.892;8.384;2023-05-23T04:48:55;100602.41;;;14.20;100.00
17383;BME280;8809;51.892;8.384;2023-05-23T04:51:23;100598.91;;;14.20;100.00
17383;BME280;8809;51.892;8.384;2023-05-23T04:53:51;100612.16;;;14.26;100.00
17383;BME280;8809;51.892;8.384;2023-05-23T04:56:20;100609.59;;;14.27;100.00
17383;BME280;8809;51.892;8.384;2023-05-23T04:58:48;100606.81;;;14.21;100.00
17383;BME280;8809;51.892;8.384;2023-05-23T05:01:15;100610.28;;;14.20;100.00
17383;BME280;8809;51.892;8.384;2023-05-23T05:03:42;100605.03;;;14.20;100.00
17383;BME280;8809;51.892;8.384;2023-05-23T05:06:09;100607.66;;;14.20;100.00
17383;BME280;8809;51.892;8.384;2023-05-23T05:08:36;100605.03;;;14.20;100.00
17383;BME280;8809;51.892;8.384;2023-05-23T05:11:05;100608.59;;;14.22;100.00
17383;BME280;8809;51.892;8.384;2023-05-23T05:13:34;100618.16;;;14.20;100.00
17383;BME280;8809;51.892;8.384;2023-05-23T05:16:01;100615.56;;;14.22;100.00
17383;BME280;8809;51.892;8.384;2023-05-23T05:18:29;100616.47;;;14.22;100.00
17383;BME280;8809;51.892;8.384;2023-05-23T05:20:56;100620.84;;;14.23;100.00
17383;BME280;8809;51.892;8.384;2023-05-23T05:23:25;100626.13;;;14.25;100.00
17383;BME280;8809;51.892;8.384;2023-05-23T05:25:54;100625.13;;;14.20;100.00
17383;BME280;8809;51.892;8.384;2023-05-23T05:28:22;100620.72;;;14.19;100.00
17383;BME280;8809;51.892;8.384;2023-05-23T05:30:51;100625.19;;;14.23;100.00
17383;BME280;8809;51.892;8.384;2023-05-23T05:33:19;100628.72;;;14.23;100.00
17383;BME280;8809;51.892;8.384;2023-05-23T05:35:48;100622.63;;;14.24;100.00
17383;BME280;8809;51.892;8.384;2023-05-23T05:38:16;100633.16;;;14.26;100.00
17383;BME280;8809;51.892;8.384;2023-05-23T05:40:43;100632.31;;;14.27;100.00
17383;BME280;8809;51.892;8.384;2023-05-23T05:43:10;100641.03;;;14.26;100.00
17383;BME280;8809;51.892;8.384;2023-05-23T05:45:37;100636.66;;;14.26;100.00
17383;BME280;8809;51.892;8.384;2023-05-23T05:48:07;100641.03;;;14.26;100.00
17383;BME280;8809;51.892;8.384;2023-05-23T05:50:56;100641.81;;;14.23;100.00
17383;BME280;8809;51.892;8.384;2023-05-23T05:53:26;100638.31;;;14.23;100.00
17383;BME280;8809;51.892;8.384;2023-05-23T05:55:53;100638.28;;;14.21;100.00
17383;BME280;8809;51.892;8.384;2023-05-23T05:58:20;100641.81;;;14.23;100.00
17383;BME280;8809;51.892;8.384;2023-05-23T06:00:47;100646.16;;;14.21;100.00
17383;BME280;8809;51.892;8.384;2023-05-23T06:03:16;100647.94;;;14.22;100.00
17383;BME280;8809;51.892;8.384;2023-05-23T06:05:46;100650.47;;;14.19;100.00
17383;BME280;8809;51.892;8.384;2023-05-23T06:08:13;100652.25;;;14.20;100.00
17383;BME280;8809;51.892;8.384;2023-05-23T06:10:40;100655.72;;;14.19;100.00
17383;BME280;8809;51.892;8.384;2023-05-23T06:13:09;100657.41;;;14.17;100.00
17383;BME280;8809;51.892;8.384;2023-05-23T06:15:36;100655.63;;;14.16;100.00
17383;BME280;8809;51.892;8.384;2023-05-23T06:18:03;100657.31;;;14.14;100.00
17383;BME280;8809;51.892;8.384;2023-05-23T06:20:32;100658.16;;;14.11;100.00
17383;BME280;8809;51.892;8.384;2023-05-23T06:23:00;100655.59;;;14.15;100.00
17383;BME280;8809;51.892;8.384;2023-05-23T06:25:30;100663.44;;;14.15;100.00
17383;BME280;8809;51.892;8.384;2023-05-23T06:27:57;100671.28;;;14.13;100.00
17383;BME280;8809;51.892;8.384;2023-05-23T06:30:25;100668.63;;;14.11;100.00
17383;BME280;8809;51.892;8.384;2023-05-23T06:32:53;100669.44;;;14.09;100.00
17383;BME280;8809;51.892;8.384;2023-05-23T06:35:22;100666.66;;;14.03;100.00
17383;BME280;8809;51.892;8.384;2023-05-23T06:37:51;100677.13;;;14.03;100.00
17383;BME280;8809;51.892;8.384;2023-05-23T06:40:18;100678.66;;;13.96;100.00
17383;BME280;8809;51.892;8.384;2023-05-23T06:42:45;100680.34;;;13.93;100.00
17383;BME280;8809;51.892;8.384;2023-05-23T06:45:13;100689.09;;;13.93;100.00
17383;BME280;8809;51.892;8.384;2023-05-23T06:47:41;100691.66;;;13.92;100.00
17383;BME280;8809;51.892;8.384;2023-05-23T06:50:11;100688.09;;;13.90;100.00
17383;BME280;8809;51.892;8.384;2023-05-23T06:52:38;100692.47;;;13.89;100.00
17383;BME280;8809;51.892;8.384;2023-05-23T06:55:09;100694.19;;;13.89;100.00
17383;BME280;8809;51.892;8.384;2023-05-23T06:57:39;100697.59;;;13.86;100.00
17383;BME280;8809;51.892;8.384;2023-05-23T07:00:07;100702.78;;;13.83;100.00
17383;BME280;8809;51.892;8.384;2023-05-23T07:02:36;100695.75;;;13.82;100.00
17383;BME280;8809;51.892;8.384;2023-05-23T07:05:04;100713.16;;;13.80;100.00
17383;BME280;8809;51.892;8.384;2023-05-23T07:07:31;100710.44;;;13.77;100.00
17383;BME280;8809;51.892;8.384;2023-05-23T07:09:58;100717.25;;;13.70;100.00
17383;BME280;8809;51.892;8.384;2023-05-23T07:12:32;100725.75;;;13.63;100.00
17383;BME280;8809;51.892;8.384;2023-05-23T07:15:00;100737.94;;;13.61;100.00
17383;BME280;8809;51.892;8.384;2023-05-23T07:17:28;100730.72;;;13.54;100.00
17383;BME280;8809;51.892;8.384;2023-05-23T07:19:55;100737.63;;;13.52;100.00
17383;BME280;8809;51.892;8.384;2023-05-23T07:22:22;100742.03;;;13.53;100.00
17383;BME280;8809;51.892;8.384;2023-05-23T07:24:50;100736.16;;;13.60;100.00
17383;BME280;8809;51.892;8.384;2023-05-23T07:27:18;100735.91;;;13.53;100.00
17383;BME280;8809;51.892;8.384;2023-05-23T07:29:47;100738.59;;;13.54;100.00
17383;BME280;8809;51.892;8.384;2023-05-23T07:32:15;100747.28;;;13.53;100.00
17383;BME280;8809;51.892;8.384;2023-05-23T07:34:45;100746.34;;;13.51;100.00
17383;BME280;8809;51.892;8.384;2023-05-23T07:37:12;100746.34;;;13.51;100.00
17383;BME280;8809;51.892;8.384;2023-05-23T07:39:40;100755.03;;;13.50;100.00
17383;BME280;8809;51.892;8.384;2023-05-23T07:42:07;100762.06;;;13.51;100.00
17383;BME280;8809;51.892;8.384;2023-05-23T07:44:34;100762.84;;;13.49;100.00
17383;BME280;8809;51.892;8.384;2023-05-23T07:47:04;100763.75;;;13.49;100.00
17383;BME280;8809;51.892;8.384;2023-05-23T07:49:31;100760.19;;;13.47;100.00
17383;BME280;8809;51.892;8.384;2023-05-23T07:51:59;100764.53;;;13.47;100.00
17383;BME280;8809;51.892;8.384;2023-05-23T07:54:26;100774.94;;;13.44;100.00
17383;BME280;8809;51.892;8.384;2023-05-23T07:56:53;100776.72;;;13.45;100.00
17383;BME280;8809;51.892;8.384;2023-05-23T07:59:21;100789.94;;;13.49;100.00
17383;BME280;8809;51.892;8.384;2023-05-23T08:01:49;100783.75;;;13.47;100.00
17383;BME280;8809;51.892;8.384;2023-05-23T08:04:18;100784.72;;;13.49;100.00
17383;BME280;8809;51.892;8.384;2023-05-23T08:06:47;100785.59;;;13.50;100.00
17383;BME280;8809;51.892;8.384;2023-05-23T08:09:15;100790.06;;;13.52;100.00
17383;BME280;8809;51.892;8.384;2023-05-23T08:11:43;100785.75;;;13.54;100.00
17383;BME280;8809;51.892;8.384;2023-05-23T08:14:10;100793.63;;;13.54;100.00
17383;BME280;8809;51.892;8.384;2023-05-23T08:16:38;100801.53;;;13.56;100.00
17383;BME280;8809;51.892;8.384;2023-05-23T08:19:05;100800.63;;;13.55;100.00
17383;BME280;8809;51.892;8.384;2023-05-23T08:21:34;100805.88;;;13.55;100.00
17383;BME280;8809;51.892;8.384;2023-05-23T08:24:02;100805.69;;;13.49;100.00
17383;BME280;8809;51.892;8.384;2023-05-23T08:26:29;100815.28;;;13.49;100.00
17383;BME280;8809;51.892;8.384;2023-05-23T08:29:00;100817.94;;;13.50;100.00
17383;BME280;8809;51.892;8.384;2023-05-23T08:31:28;100817.16;;;13.53;100.00
17383;BME280;8809;51.892;8.384;2023-05-23T08:33:55;100825.09;;;13.54;100.00
17383;BME280;8809;51.892;8.384;2023-05-23T08:36:23;100822.53;;;13.57;100.00
17383;BME280;8809;51.892;8.384;2023-05-23T08:38:54;100831.31;;;13.58;100.00
17383;BME280;8809;51.892;8.384;2023-05-23T08:41:23;100820.75;;;13.55;100.00
17383;BME280;8809;51.892;8.384;2023-05-23T08:43:50;100820.63;;;13.52;100.00
17383;BME280;8809;51.892;8.384;2023-05-23T08:46:18;100842.50;;;13.52;100.00
17383;BME280;8809;51.892;8.384;2023-05-23T08:48:50;100832.00;;;13.52;100.00
17383;BME280;8809;51.892;8.384;2023-05-23T08:51:18;100832.00;;;13.52;100.00
17383;BME280;8809;51.892;8.384;2023-05-23T08:53:47;100834.56;;;13.51;100.00
17383;BME280;8809;51.892;8.384;2023-05-23T08:56:17;100845.94;;;13.51;100.00
17383;BME280;8809;51.892;8.384;2023-05-23T08:58:44;100849.47;;;13.52;100.00
17383;BME280;8809;51.892;8.384;2023-05-23T09:01:13;100846.84;;;13.52;100.00
17383;BME280;8809;51.892;8.384;2023-05-23T09:03:43;100849.34;;;13.49;100.00
17383;BME280;8809;51.892;8.384;2023-05-23T09:06:11;100859.03;;;13.51;100.00
17383;BME280;8809;51.892;8.384;2023-05-23T09:08:38;100863.41;;;13.51;100.00
17383;BME280;8809;51.892;8.384;2023-05-23T09:11:08;100865.13;;;13.50;100.00
17383;BME280;8809;51.892;8.384;2023-05-23T09:13:39;100871.91;;;13.44;100.00
17383;BME280;8809;51.892;8.384;2023-05-23T09:16:08;100873.63;;;13.43;100.00
17383;BME280;8809;51.892;8.384;2023-05-23T09:18:38;100877.19;;;13.45;100.00
17383;BME280;8809;51.892;8.384;2023-05-23T09:21:07;100881.56;;;13.46;100.00
17383;BME280;8809;51.892;8.384;2023-05-23T09:23:35;100890.31;;;13.47;100.00
17383;BME280;8809;51.892;8.384;2023-05-23T09:26:04;100894.59;;;13.43;100.00
17383;BME280;8809;51.892;8.384;2023-05-23T09:28:33;100888.41;;;13.41;100.00
17383;BME280;8809;51.892;8.384;2023-05-23T09:31:04;100889.13;;;13.37;100.00
17383;BME280;8809;51.892;8.384;2023-05-23T09:33:37;100890.81;;;13.35;100.00
17383;BME280;8809;51.892;8.384;2023-05-23T09:36:07;100896.91;;;13.34;100.00
17383;BME280;8809;51.892;8.384;2023-05-23T09:38:38;100903.91;;;13.35;100.00
17383;BME280;8809;51.892;8.384;2023-05-23T09:41:05;100906.63;;;13.38;100.00
17383;BME280;8809;51.892;8.384;2023-05-23T09:43:33;100899.78;;;13.42;100.00
17383;BME280;8809;51.892;8.384;2023-05-23T09:46:06;100902.41;;;13.42;100.00
17383;BME280;8809;51.892;8.384;2023-05-23T09:48:35;100903.16;;;13.39;100.00
17383;BME280;8809;51.892;8.384;2023-05-23T09:51:03;100917.09;;;13.38;100.00
17383;BME280;8809;51.892;8.384;2023-05-23T09:53:32;100913.44;;;13.33;100.00
17383;BME280;8809;51.892;8.384;2023-05-23T09:56:01;100917.53;;;13.25;100.00
17383;BME280;8809;51.892;8.384;2023-05-23T09:58:32;100921.81;;;13.23;100.00
17383;BME280;8809;51.892;8.384;2023-05-23T10:01:01;100925.41;;;13.25;100.00
17383;BME280;8809;51.892;8.384;2023-05-23T10:03:36;100927.19;;;13.26;100.00
17383;BME280;8809;51.892;8.384;2023-05-23T10:06:08;100930.84;;;13.31;100.00
17383;BME280;8809;51.892;8.384;2023-05-23T10:08:42;100923.88;;;13.31;100.00
17383;BME280;8809;51.892;8.384;2023-05-23T10:14:17;100930.72;;;13.28;100.00
17383;BME280;8809;51.892;8.384;2023-05-23T10:16:54;100934.19;;;13.27;100.00
17383;BME280;8809;51.892;8.384;2023-05-23T10:19:34;100937.66;;;13.26;100.00
17383;BME280;8809;51.892;8.384;2023-05-23T10:22:07;100949.00;;;13.26;100.00
17383;BME280;8809;51.892;8.384;2023-05-23T10:24:35;100944.50;;;13.22;100.00
17383;BME280;8809;51.892;8.384;2023-05-23T10:27:04;100947.91;;;13.20;100.00
17383;BME280;8809;51.892;8.384;2023-05-23T10:29:32;100955.75;;;13.20;100.00
17383;BME280;8809;51.892;8.384;2023-05-23T10:32:00;100958.16;;;13.14;100.00
17383;BME280;8809;51.892;8.384;2023-05-23T10:34:33;100951.09;;;13.13;100.00
17383;BME280;8809;51.892;8.384;2023-05-23T10:37:06;100967.72;;;13.13;100.00
17383;BME280;8809;51.892;8.384;2023-05-23T10:39:43;100964.91;;;13.09;100.00
17383;BME280;8809;51.892;8.384;2023-05-23T10:42:19;100973.56;;;13.06;100.00
17383;BME280;8809;51.892;8.384;2023-05-23T10:45:13;100969.22;;;13.07;100.00
17383;BME280;8809;51.892;8.384;2023-05-23T10:47:40;100973.06;;;13.15;100.00
17383;BME280;8809;51.892;8.384;2023-05-23T10:50:13;100971.47;;;13.20;100.00
17383;BME280;8809;51.892;8.384;2023-05-23T10:52:41;100969.97;;;13.26;100.00
17383;BME280;8809;51.892;8.384;2023-05-23T10:55:13;100974.38;;;13.27;100.00
17383;BME280;8809;51.892;8.384;2023-05-23T10:57:43;100974.56;;;13.32;100.00
17383;BME280;8809;51.892;8.384;2023-05-23T11:00:14;100976.44;;;13.36;100.00
17383;BME280;8809;51.892;8.384;2023-05-23T11:02:53;100977.38;;;13.38;100.00
17383;BME280;8809;51.892;8.384;2023-05-23T11:05:26;100978.34;;;13.40;100.00
17383;BME280;8809;51.892;8.384;2023-05-23T11:08:07;100976.78;;;13.45;100.00
17383;BME280;8809;51.892;8.384;2023-05-23T11:10:57;100979.81;;;13.57;100.00
17383;BME280;8809;51.892;8.384;2023-05-23T11:13:53;100978.69;;;13.74;100.00
17383;BME280;8809;51.892;8.384;2023-05-23T11:16:27;100981.84;;;13.90;100.00
17383;BME280;8809;51.892;8.384;2023-05-23T11:19:24;100988.34;;;14.01;100.00
17383;BME280;8809;51.892;8.384;2023-05-23T11:21:56;100987.00;;;14.13;100.00
17383;BME280;8809;51.892;8.384;2023-05-23T11:24:50;100991.88;;;14.28;100.00
17383;BME280;8809;51.892;8.384;2023-05-23T11:27:25;101002.41;;;14.55;100.00
17383;BME280;8809;51.892;8.384;2023-05-23T11:29:57;101003.03;;;14.75;100.00
17383;BME280;8809;51.892;8.384;2023-05-23T11:32:27;101006.56;;;14.75;100.00
17383;BME280;8809;51.892;8.384;2023-05-23T11:34:54;101007.13;;;14.65;100.00
17383;BME280;8809;51.892;8.384;2023-05-23T11:37:21;101009.75;;;14.65;100.00
17383;BME280;8809;51.892;8.384;2023-05-23T11:39:50;101007.97;;;14.64;100.00
17383;BME280;8809;51.892;8.384;2023-05-23T11:42:17;101007.16;;;14.67;100.00
17383;BME280;8809;51.892;8.384;2023-05-23T11:44:48;101015.84;;;14.64;100.00
17383;BME280;8809;51.892;8.384;2023-05-23T11:47:17;101017.69;;;14.67;100.00
17383;BME280;8809;51.892;8.384;2023-05-23T11:49:45;101019.47;;;14.68;100.00
17383;BME280;8809;51.892;8.384;2023-05-23T11:52:13;101033.97;;;14.57;100.00
17383;BME280;8809;51.892;8.384;2023-05-23T11:54:41;101017.16;;;14.52;100.00
17383;BME280;8809;51.892;8.384;2023-05-23T11:57:10;101026.81;;;14.51;100.00
17383;BME280;8809;51.892;8.384;2023-05-23T11:59:39;101034.53;;;14.46;100.00
17383;BME280;8809;51.892;8.384;2023-05-23T12:02:07;101035.97;;;14.38;100.00
17383;BME280;8809;51.892;8.384;2023-05-23T12:04:34;101038.34;;;14.31;100.00
17383;BME280;8809;51.892;8.384;2023-05-23T12:07:04;101047.00;;;14.28;100.00
17383;BME280;8809;51.892;8.384;2023-05-23T12:09:41;101045.94;;;14.23;100.00
17383;BME280;8809;51.892;8.384;2023-05-23T12:12:11;101045.22;;;14.27;100.00
17383;BME280;8809;51.892;8.384;2023-05-23T12:14:46;101036.44;;;14.27;100.00
17383;BME280;8809;51.892;8.384;2023-05-23T12:17:13;101043.69;;;14.34;100.00
17383;BME280;8809;51.892;8.384;2023-05-23T12:19:44;101043.03;;;14.39;100.00
17383;BME280;8809;51.892;8.384;2023-05-23T12:22:12;101046.28;;;14.58;100.00
17383;BME280;8809;51.892;8.384;2023-05-23T12:24:44;101041.84;;;14.83;100.00
17383;BME280;8809;51.892;8.384;2023-05-23T12:27:16;101050.22;;;15.00;100.00
17383;BME280;8809;51.892;8.384;2023-05-23T12:29:49;101044.09;;;15.00;100.00
17383;BME280;8809;51.892;8.384;2023-05-23T12:32:20;101052.00;;;15.01;100.00
17383;BME280;8809;51.892;8.384;2023-05-23T12:34:51;101049.59;;;15.07;100.00
17383;BME280;8809;51.892;8.384;2023-05-23T12:37:20;101046.13;;;15.08;100.00
17383;BME280;8809;51.892;8.384;2023-05-23T12:39:49;101042.94;;;15.20;100.00
17383;BME280;8809;51.892;8.384;2023-05-23T12:42:18;101052.16;;;15.34;100.00
17383;BME280;8809;51.892;8.384;2023-05-23T12:44:50;101052.97;;;15.62;100.00
17383;BME280;8809;51.892;8.384;2023-05-23T12:47:17;101054.88;;;15.67;100.00
17383;BME280;8809;51.892;8.384;2023-05-23T12:49:45;101052.50;;;15.76;100.00
17383;BME280;8809;51.892;8.384;2023-05-23T12:52:13;101067.38;;;15.74;100.00
17383;BME280;8809;51.892;8.384;2023-05-23T12:54:47;101063.41;;;15.90;100.00
17383;BME280;8809;51.892;8.384;2023-05-23T12:57:19;101054.28;;;16.09;100.00
17383;BME280;8809;51.892;8.384;2023-05-23T12:59:54;101049.28;;;16.19;100.00
17383;BME280;8809;51.892;8.384;2023-05-23T13:02:42;101058.94;;;16.19;100.00
17383;BME280;8809;51.892;8.384;2023-05-23T13:05:43;101064.94;;;16.13;100.00